Terminal Aerodrome Forecast
Issued by NWS

Home | Current Version | Previous Version | Text Only | Print | Product List | Glossary On
Versions: 1 2 3 4 5 6 7 8 9 10 11 12 13 14 15 16 17
771
FTPA31 PHFO 201724
TAFHTO
TAF
PHTO 201724Z 2018/2118 24006KT P6SM SHRA SCT015 BKN025 OVC040
     FM202100 06008KT P6SM VCSH SCT025 BKN045
     FM210500 24005KT P6SM VCSH SCT025 BKN040=

USA.gov is the U.S. government's official web portal to all federal, state and local government web resources and services.